Time;durP1;ratioP1;P1;durP2;ratioP2;P2;SDS_P1;SDS_P2;PMS_P1;PMS_P2;Temp;Humidity;BMP_temperature;BMP_pressure;BME280_temperature;BME280_humidity;BME280_pressure;Samples;Min_cycle;Max_cycle;Signal;HPM_P1;HPM_P2
2022/09/19 00:01:13;;;;;;;5.00;1.73;;;;;;;10.26;97.55;100322.13;5033070;28;20821;-81
2022/09/19 00:03:41;;;;;;;4.73;2.00;;;;;;;10.26;97.27;100313.31;5031079;28;20241;-81
2022/09/19 00:06:09;;;;;;;3.13;1.73;;;;;;;10.27;97.41;100310.53;5025760;28;20223;-81
2022/09/19 00:08:38;;;;;;;5.07;1.63;;;;;;;10.29;97.31;100319.28;5029706;28;20210;-81
2022/09/19 00:11:07;;;;;;;5.90;2.40;;;;;;;10.28;97.40;100317.56;5032594;28;20228;-81
2022/09/19 00:13:44;;;;;;;5.13;1.90;;;;;;;10.30;97.28;100320.13;5030883;28;21514;-80
2022/09/19 00:16:11;;;;;;;5.40;2.00;;;;;;;10.29;97.49;100313.94;5029230;28;20287;-81
2022/09/19 00:18:37;;;;;;;6.27;2.17;;;;;;;10.30;97.62;100322.78;5032463;28;20706;-81
2022/09/19 00:21:04;;;;;;;7.63;2.10;;;;;;;10.29;97.57;100326.41;5031722;28;20205;-81
2022/09/19 00:26:17;;;;;;;6.87;2.47;;;;;;;10.27;97.57;100329.16;5031941;28;20288;-81
2022/09/19 00:28:44;;;;;;;4.63;1.93;;;;;;;10.27;97.35;100333.63;5031961;28;20206;-81
2022/09/19 00:31:16;;;;;;;4.47;2.03;;;;;;;10.25;97.34;100347.03;5032284;28;20199;-80
2022/09/19 00:33:42;;;;;;;7.43;2.90;;;;;;;10.26;97.63;100345.25;5032335;28;20206;-81
2022/09/19 00:36:09;;;;;;;6.60;2.80;;;;;;;10.26;97.27;100343.44;5036124;28;20197;-81
2022/09/19 00:38:35;;;;;;;6.90;2.30;;;;;;;10.27;97.28;100350.47;5036068;28;20206;-81
2022/09/19 00:41:01;;;;;;;2.87;2.10;;;;;;;10.25;97.22;100355.03;5031463;28;20198;-80
2022/09/19 00:46:23;;;;;;;3.93;2.00;;;;;;;10.27;97.21;100357.59;5070926;27;20562;-71
2022/09/19 00:48:54;;;;;;;3.60;1.80;;;;;;;10.26;97.07;100353.22;5061815;28;20207;-71
2022/09/19 00:51:31;;;;;;;4.43;2.07;;;;;;;10.26;96.90;100362.06;5041508;28;20209;-71
2022/09/19 00:53:59;;;;;;;4.37;1.87;;;;;;;10.26;96.92;100371.84;5046320;28;20521;-71
2022/09/19 00:56:25;;;;;;;5.90;2.10;;;;;;;10.27;96.56;100369.09;5042043;28;20205;-71
2022/09/19 01:01:21;;;;;;;7.10;1.80;;;;;;;10.26;96.48;100375.38;5013338;28;20222;-75
2022/09/19 01:03:47;;;;;;;5.47;1.93;;;;;;;10.27;96.67;100382.41;5008550;28;20206;-75
2022/09/19 01:06:35;;;;;;;4.77;1.97;;;;;;;10.27;96.53;100387.72;5010202;28;20244;-75
2022/09/19 01:09:23;;;;;;;5.90;1.97;;;;;;;10.25;96.72;100386.97;5006378;28;20682;-75
2022/09/19 01:12:21;;;;;;;4.07;1.70;;;;;;;10.26;96.48;100396.66;5007546;28;20214;-76
2022/09/19 01:15:19;;;;;;;3.47;2.00;;;;;;;10.26;96.48;100395.81;5001386;28;20679;-75
2022/09/19 01:17:49;;;;;;;6.83;2.17;;;;;;;10.24;96.52;100395.06;5006240;28;20238;-75
2022/09/19 01:20:52;;;;;;;4.17;2.00;;;;;;;10.23;96.40;100398.66;5013862;28;20234;-75
2022/09/19 01:23:52;;;;;;;3.20;1.80;;;;;;;10.21;96.36;100396.09;4994496;28;20226;-75
2022/09/19 01:26:35;;;;;;;3.93;2.17;;;;;;;10.19;96.48;100414.00;4997584;28;20237;-76
2022/09/19 01:29:07;;;;;;;2.77;1.73;;;;;;;10.18;96.70;100412.25;5006325;28;20206;-76
2022/09/19 01:31:38;;;;;;;4.00;2.30;;;;;;;10.18;96.58;100416.72;5006957;28;20218;-75
2022/09/19 01:34:09;;;;;;;5.33;2.47;;;;;;;10.16;96.78;100410.66;5010080;28;20249;-75
2022/09/19 01:36:40;;;;;;;3.47;1.70;;;;;;;10.15;96.70;100415.13;5002634;28;20223;-75
2022/09/19 01:39:09;;;;;;;4.67;1.70;;;;;;;10.15;96.55;100416.94;5006469;28;20208;-73
2022/09/19 01:41:36;;;;;;;1.80;1.30;;;;;;;10.15;96.59;100427.56;5001729;28;20213;-75
2022/09/19 01:44:06;;;;;;;3.00;1.70;;;;;;;10.10;96.25;100420.72;5008548;28;20207;-76
2022/09/19 01:46:43;;;;;;;4.90;1.57;;;;;;;10.10;96.32;100431.38;5005856;28;20234;-75
2022/09/19 01:49:22;;;;;;;6.23;1.30;;;;;;;10.08;96.76;100433.28;5006242;28;20466;-75
2022/09/19 01:51:51;;;;;;;3.67;1.37;;;;;;;10.06;96.30;100429.84;5011035;28;20676;-76
2022/09/19 01:54:33;;;;;;;3.73;1.10;;;;;;;10.06;96.34;100439.66;5001771;28;20215;-76
2022/09/19 01:57:11;;;;;;;5.63;1.47;;;;;;;10.03;96.41;100443.34;4995736;28;20207;-75
2022/09/19 01:59:51;;;;;;;6.33;1.47;;;;;;;10.03;96.67;100446.00;4988479;28;20611;-75
2022/09/19 02:02:31;;;;;;;2.10;1.00;;;;;;;10.03;96.88;100439.88;5000100;28;20217;-75
2022/09/19 02:05:04;;;;;;;3.57;1.07;;;;;;;10.04;96.42;100450.38;4999333;28;20229;-75
2022/09/19 02:07:42;;;;;;;1.70;0.90;;;;;;;10.03;96.39;100453.19;4992904;28;20207;-76
2022/09/19 02:10:14;;;;;;;2.20;1.10;;;;;;;10.02;96.81;100452.31;5000426;28;20218;-75
2022/09/19 02:12:44;;;;;;;4.03;1.30;;;;;;;10.04;96.80;100462.84;4997673;28;21496;-75
2022/09/19 02:15:15;;;;;;;5.27;1.00;;;;;;;10.01;96.73;100463.91;4998320;28;20211;-76
2022/09/19 02:17:48;;;;;;;4.13;0.80;;;;;;;10.02;96.61;100470.09;4989452;28;20203;-76
2022/09/19 02:20:20;;;;;;;3.23;0.80;;;;;;;9.98;96.58;100469.44;4994892;28;20267;-76
2022/09/19 02:22:50;;;;;;;2.87;1.27;;;;;;;9.97;96.39;100470.38;4996165;28;20207;-76
2022/09/19 02:25:20;;;;;;;3.57;0.80;;;;;;;9.95;96.72;100479.41;4992306;28;20231;-76
2022/09/19 02:27:52;;;;;;;5.47;1.17;;;;;;;9.94;96.52;100477.69;4996771;28;20298;-76
2022/09/19 02:30:21;;;;;;;3.27;0.80;;;;;;;9.93;96.52;100479.50;4998238;28;20223;-75
2022/09/19 02:32:49;;;;;;;3.10;0.80;;;;;;;9.94;96.60;100478.53;4998338;28;20210;-73
2022/09/19 02:35:20;;;;;;;5.30;1.17;;;;;;;9.91;96.24;100493.84;4988051;28;20219;-75
2022/09/19 02:37:51;;;;;;;3.33;1.00;;;;;;;9.90;96.54;100489.47;5001816;28;20203;-76
2022/09/19 02:40:23;;;;;;;3.80;1.10;;;;;;;9.90;96.50;100498.31;4985904;28;20247;-75
2022/09/19 02:42:56;;;;;;;6.87;1.27;;;;;;;9.91;96.07;100491.19;4987220;28;20213;-75
2022/09/19 02:45:31;;;;;;;7.57;1.37;;;;;;;9.90;96.47;100500.09;4993171;28;20223;-75
2022/09/19 02:48:03;;;;;;;5.70;1.00;;;;;;;9.89;96.14;100509.03;4988140;28;20212;-74
2022/09/19 02:50:37;;;;;;;4.27;1.40;;;;;;;9.90;96.26;100514.25;5001803;28;20594;-76
2022/09/19 02:53:09;;;;;;;4.90;1.50;;;;;;;9.90;96.07;100503.63;4999156;28;20214;-75
2022/09/19 02:55:44;;;;;;;6.13;1.90;;;;;;;9.89;95.92;100512.56;4994967;28;20211;-74
2022/09/19 02:58:14;;;;;;;6.03;1.43;;;;;;;9.90;96.08;100514.25;5000530;28;20636;-74
2022/09/19 03:00:46;;;;;;;4.57;1.73;;;;;;;9.90;96.07;100513.41;4994225;28;20329;-75
2022/09/19 03:06:05;;;;;;;3.40;1.30;;;;;;;9.87;95.60;100511.78;4994251;28;20715;-75
2022/09/19 03:08:36;;;;;;;4.10;1.53;;;;;;;9.86;95.49;100517.22;4991329;28;20209;-75
2022/09/19 03:11:08;;;;;;;4.37;1.70;;;;;;;9.85;95.80;100523.50;4996923;28;20250;-75
2022/09/19 03:13:36;;;;;;;5.20;2.00;;;;;;;9.83;96.13;100514.75;4992921;28;20208;-75
2022/09/19 03:16:07;;;;;;;6.20;1.90;;;;;;;9.80;95.87;100514.94;4994726;28;20199;-76
2022/09/19 03:18:36;;;;;;;5.03;2.60;;;;;;;9.78;96.17;100522.16;4994345;28;20682;-75
2022/09/19 03:21:07;;;;;;;4.43;2.17;;;;;;;9.75;96.19;100518.75;4994474;28;20223;-76
2022/09/19 03:23:37;;;;;;;7.87;2.60;;;;;;;9.74;96.16;100517.03;4993640;28;20238;-75
2022/09/19 03:26:05;;;;;;;5.40;2.13;;;;;;;9.72;96.08;100528.72;4995343;28;20215;-75
2022/09/19 03:28:31;;;;;;;5.37;2.20;;;;;;;9.72;96.47;100528.72;4999623;28;20703;-75
2022/09/19 03:31:00;;;;;;;6.87;2.27;;;;;;;9.69;95.92;100521.78;5000664;28;20230;-75
2022/09/19 03:33:28;;;;;;;8.20;2.27;;;;;;;9.68;96.00;100527.19;4997069;28;20219;-75
2022/09/19 03:35:56;;;;;;;6.30;2.20;;;;;;;9.68;96.49;100544.00;4998859;28;20207;-75
2022/09/19 03:38:22;;;;;;;6.13;2.23;;;;;;;9.65;96.66;100538.88;4990852;28;20199;-74
2022/09/19 03:40:49;;;;;;;5.80;2.30;;;;;;;9.64;96.30;100542.50;4996812;28;20234;-75
2022/09/19 03:43:16;;;;;;;10.27;3.10;;;;;;;9.63;96.35;100543.44;4995829;28;20207;-75
2022/09/19 03:45:42;;;;;;;4.40;1.80;;;;;;;9.64;96.44;100546.97;4991425;28;20231;-75
2022/09/19 03:48:09;;;;;;;6.57;2.60;;;;;;;9.63;96.66;100546.09;4980570;28;20226;-75
2022/09/19 03:50:37;;;;;;;5.40;2.20;;;;;;;9.61;96.63;100553.31;4986559;28;20236;-73
2022/09/19 03:53:03;;;;;;;7.43;1.90;;;;;;;9.58;97.02;100550.84;4981329;28;20223;-75
2022/09/19 03:55:30;;;;;;;8.80;2.27;;;;;;;9.57;97.25;100554.44;4985520;28;20204;-74
2022/09/19 03:57:56;;;;;;;6.20;2.07;;;;;;;9.56;97.05;100552.72;4986137;28;20207;-73
2022/09/19 04:00:22;;;;;;;5.67;2.20;;;;;;;9.56;97.21;100563.34;4982633;28;20235;-72
2022/09/19 04:02:50;;;;;;;6.30;2.00;;;;;;;9.57;97.13;100553.59;4984310;28;20294;-76
2022/09/19 04:05:16;;;;;;;4.87;2.00;;;;;;;9.57;97.28;100569.53;4981186;28;20259;-74
2022/09/19 04:07:44;;;;;;;3.97;1.90;;;;;;;9.55;97.26;100561.66;4986486;28;20207;-75
2022/09/19 04:10:11;;;;;;;6.50;2.00;;;;;;;9.55;96.93;100560.78;4982981;28;20242;-75
2022/09/19 04:12:38;;;;;;;6.00;1.70;;;;;;;9.54;96.53;100565.25;4990112;28;20211;-75
2022/09/19 04:15:05;;;;;;;3.60;1.40;;;;;;;9.55;97.34;100576.75;4989646;28;20578;-75
2022/09/19 04:17:32;;;;;;;6.20;1.97;;;;;;;9.55;97.55;100568.78;4977172;28;20258;-75
2022/09/19 04:19:58;;;;;;;2.97;1.60;;;;;;;9.54;97.18;100575.03;4977162;28;20326;-75
2022/09/19 04:22:25;;;;;;;3.57;1.50;;;;;;;9.54;97.08;100581.19;4977613;28;20677;-74
2022/09/19 04:24:52;;;;;;;3.00;1.60;;;;;;;9.54;96.96;100578.53;4975287;28;20211;-75
2022/09/19 04:27:19;;;;;;;6.03;1.70;;;;;;;9.52;96.99;100577.78;4977378;28;20234;-74
2022/09/19 04:29:45;;;;;;;3.47;1.20;;;;;;;9.52;97.14;100580.44;4975934;28;20239;-72
2022/09/19 04:32:14;;;;;;;3.80;1.27;;;;;;;9.51;96.92;100584.03;4972370;28;20219;-74
2022/09/19 04:34:42;;;;;;;4.57;1.20;;;;;;;9.51;97.00;100592.00;4973078;28;20262;-74
2022/09/19 04:37:10;;;;;;;3.47;1.40;;;;;;;9.52;97.20;100588.41;4973885;28;20238;-74
2022/09/19 04:39:37;;;;;;;6.97;1.20;;;;;;;9.51;97.50;100591.16;4977002;28;20223;-74
2022/09/19 04:42:05;;;;;;;4.33;1.07;;;;;;;9.51;97.82;100592.00;4977508;28;20204;-74
2022/09/19 04:44:32;;;;;;;5.40;1.43;;;;;;;9.52;97.62;100591.06;4984991;28;20207;-74
2022/09/19 04:46:58;;;;;;;4.57;1.57;;;;;;;9.52;97.09;100596.38;4986423;28;20712;-74
2022/09/19 04:49:34;;;;;;;4.33;1.27;;;;;;;9.52;97.21;100593.72;4978737;28;20235;-72
2022/09/19 04:52:01;;;;;;;5.83;1.13;;;;;;;9.52;97.44;100601.72;4983978;28;20302;-72
2022/09/19 04:54:28;;;;;;;6.00;1.20;;;;;;;9.51;97.85;100602.66;4985362;28;20214;-75
2022/09/19 04:56:54;;;;;;;3.13;1.00;;;;;;;9.51;97.95;100597.34;4982527;28;20410;-73
2022/09/19 04:59:22;;;;;;;8.97;1.20;;;;;;;9.50;97.31;100608.91;4978852;28;20239;-74
2022/09/19 05:01:49;;;;;;;7.40;1.90;;;;;;;9.50;97.40;100608.06;4981477;28;20229;-74
2022/09/19 05:04:16;;;;;;;2.63;0.90;;;;;;;9.51;97.49;100607.97;4981563;28;20207;-74
2022/09/19 05:06:43;;;;;;;3.83;1.10;;;;;;;9.51;98.13;100602.66;4983457;28;20215;-74
2022/09/19 05:09:11;;;;;;;4.93;1.10;;;;;;;9.52;98.28;100611.47;4980268;28;20235;-74
2022/09/19 05:11:40;;;;;;;4.07;1.30;;;;;;;9.52;97.94;100612.34;4979753;28;20235;-72
2022/09/19 05:14:09;;;;;;;4.00;1.40;;;;;;;9.53;98.17;100615.84;4982084;28;20692;-74
2022/09/19 05:16:36;;;;;;;3.93;1.13;;;;;;;9.52;98.17;100620.31;4983402;28;20610;-75
2022/09/19 05:19:03;;;;;;;4.60;1.90;;;;;;;9.51;97.77;100623.91;4980730;28;20764;-72
2022/09/19 05:21:30;;;;;;;4.10;2.30;;;;;;;9.52;97.67;100627.44;4984940;28;20203;-73
2022/09/19 05:23:56;;;;;;;7.47;2.13;;;;;;;9.49;98.04;100623.19;4988149;28;20245;-74
2022/09/19 05:26:23;;;;;;;7.13;2.47;;;;;;;9.51;97.85;100634.56;4979775;28;20228;-73
2022/09/19 05:28:50;;;;;;;2.80;1.63;;;;;;;9.52;97.70;100633.59;4980516;28;20714;-73
2022/09/19 05:31:19;;;;;;;5.23;2.10;;;;;;;9.55;97.81;100636.09;4981308;28;20217;-72
2022/09/19 05:33:47;;;;;;;4.07;1.83;;;;;;;9.57;98.40;100644.84;4991870;28;20293;-71
2022/09/19 05:36:14;;;;;;;2.60;2.40;;;;;;;9.60;98.22;100646.47;4991306;28;20234;-71
2022/09/19 05:38:41;;;;;;;6.83;2.43;;;;;;;9.65;98.47;100652.38;4991277;28;20207;-71
2022/09/19 05:41:07;;;;;;;4.87;2.47;;;;;;;9.67;98.59;100646.00;5000209;28;20309;-71
2022/09/19 05:43:34;;;;;;;6.70;2.30;;;;;;;9.69;98.18;100649.41;4986991;28;20211;-72
2022/09/19 05:46:01;;;;;;;4.10;2.50;;;;;;;9.73;98.13;100653.63;5003338;28;20731;-71
2022/09/19 05:48:29;;;;;;;5.60;2.77;;;;;;;9.78;98.29;100655.16;4997886;28;20310;-71
2022/09/19 05:50:57;;;;;;;4.83;2.50;;;;;;;9.79;98.34;100655.06;4996747;28;20239;-71
2022/09/19 05:56:09;;;;;;;4.63;2.70;;;;;;;9.88;98.34;100659.81;4991010;28;20409;-71
2022/09/19 05:58:36;;;;;;;3.23;2.87;;;;;;;9.92;98.41;100660.50;4997945;28;20298;-71
2022/09/19 06:01:05;;;;;;;3.73;1.97;;;;;;;9.94;98.18;100671.91;4992719;28;20239;-71
2022/09/19 06:03:31;;;;;;;2.90;1.80;;;;;;;9.96;98.33;100668.19;4996800;28;20235;-73
2022/09/19 06:05:59;;;;;;;3.13;1.70;;;;;;;10.01;98.53;100683.91;4990585;28;20817;-71
2022/09/19 06:08:25;;;;;;;4.00;1.80;;;;;;;10.04;97.97;100681.03;4991610;28;20378;-71
2022/09/19 06:10:52;;;;;;;5.60;2.00;;;;;;;10.07;97.98;100680.84;4993519;28;20222;-70
2022/09/19 06:13:21;;;;;;;5.37;2.40;;;;;;;10.11;97.90;100687.69;4993539;28;20222;-71
2022/09/19 06:15:48;;;;;;;4.83;2.20;;;;;;;10.14;98.24;100684.84;4995909;28;20227;-71
2022/09/19 06:18:14;;;;;;;4.67;2.20;;;;;;;10.17;98.30;100690.00;4991618;28;20207;-70
2022/09/19 06:20:41;;;;;;;4.20;1.60;;;;;;;10.22;98.03;100687.91;4992587;28;20216;-72
2022/09/19 06:23:11;;;;;;;5.47;1.80;;;;;;;10.26;97.86;100694.78;4997188;28;20223;-70
2022/09/19 06:25:39;;;;;;;5.93;1.70;;;;;;;10.29;97.87;100689.25;4987628;28;20211;-71
2022/09/19 06:28:07;;;;;;;4.40;1.80;;;;;;;10.35;98.01;100694.22;4994869;28;20242;-70
2022/09/19 06:30:34;;;;;;;7.60;2.00;;;;;;;10.40;97.91;100701.91;4995787;28;20215;-70
2022/09/19 06:33:01;;;;;;;8.03;2.03;;;;;;;10.49;98.23;100708.47;5002625;28;20234;-71
2022/09/19 06:35:29;;;;;;;5.23;1.90;;;;;;;10.56;98.30;100705.34;4993146;28;20216;-70
2022/09/19 06:37:59;;;;;;;7.20;1.70;;;;;;;10.64;98.61;100712.84;5001772;28;20207;-71
2022/09/19 06:40:27;;;;;;;2.77;1.30;;;;;;;10.70;98.49;100716.00;4988756;28;20260;-71
2022/09/19 06:42:58;;;;;;;5.37;1.90;;;;;;;10.78;98.36;100715.50;4995358;28;20627;-71
2022/09/19 06:45:25;;;;;;;4.60;1.70;;;;;;;10.87;98.57;100716.72;4998449;28;20211;-70
2022/09/19 06:47:56;;;;;;;3.10;1.57;;;;;;;10.96;98.67;100718.81;5000054;28;20223;-71
2022/09/19 06:50:24;;;;;;;4.03;1.50;;;;;;;11.05;98.58;100720.88;5002174;28;20234;-71
2022/09/19 06:52:50;;;;;;;5.07;1.70;;;;;;;11.13;98.43;100716.75;4998889;28;20239;-71
2022/09/19 06:55:17;;;;;;;7.20;2.60;;;;;;;11.20;98.14;100719.91;5001450;28;20216;-71
2022/09/19 06:57:53;;;;;;;6.00;2.10;;;;;;;11.26;97.93;100716.00;4991977;28;20579;-71
2022/09/19 07:00:19;;;;;;;5.03;1.57;;;;;;;11.30;97.05;100725.47;5031829;22;20294;-80
2022/09/19 07:02:46;;;;;;;4.10;1.80;;;;;;;11.35;97.21;100732.22;5059487;28;20229;-80
2022/09/19 07:05:12;;;;;;;4.03;1.63;;;;;;;11.41;96.72;100728.31;5051218;28;20206;-80
2022/09/19 07:07:39;;;;;;;6.40;2.30;;;;;;;11.47;96.38;100722.56;5060855;28;20235;-80
2022/09/19 07:10:07;;;;;;;6.80;2.03;;;;;;;11.54;96.39;100731.88;5054218;28;20210;-80
2022/09/19 07:12:33;;;;;;;3.70;2.13;;;;;;;11.63;96.62;100733.94;5059104;28;20643;-80
2022/09/19 07:15:01;;;;;;;7.70;1.97;;;;;;;11.70;95.85;100731.72;5050850;28;20204;-81
2022/09/19 07:17:28;;;;;;;5.80;2.17;;;;;;;11.76;95.65;100742.88;5057538;28;20651;-81
2022/09/19 07:19:54;;;;;;;6.43;2.03;;;;;;;11.81;95.25;100735.44;5053366;28;20209;-81
2022/09/19 07:22:22;;;;;;;5.77;1.87;;;;;;;11.86;95.11;100737.75;5054917;28;20229;-81
2022/09/19 07:24:50;;;;;;;3.23;1.87;;;;;;;11.91;94.47;100745.47;5049306;28;20224;-80
2022/09/19 07:27:16;;;;;;;7.07;1.83;;;;;;;11.99;94.38;100743.16;5058466;28;20267;-80
2022/09/19 07:29:43;;;;;;;5.37;1.90;;;;;;;12.10;94.47;100743.25;5052029;28;20205;-80
2022/09/19 07:32:11;;;;;;;8.10;1.70;;;;;;;12.24;94.39;100748.50;5048376;28;20234;-80
2022/09/19 07:34:37;;;;;;;7.37;1.80;;;;;;;12.33;94.20;100742.56;5050232;28;20209;-80
2022/09/19 07:37:04;;;;;;;6.27;2.00;;;;;;;12.46;93.30;100750.56;5050180;28;20204;-80
2022/09/19 07:39:30;;;;;;;6.13;1.87;;;;;;;12.55;92.75;100759.72;5050453;28;20212;-80
2022/09/19 07:41:57;;;;;;;7.27;2.67;;;;;;;12.61;91.85;100757.50;5047160;28;20217;-80
2022/09/19 07:44:23;;;;;;;5.40;1.40;;;;;;;12.67;91.14;100756.22;5053865;28;20208;-83
2022/09/19 07:49:33;;;;;;;7.97;1.77;;;;;;;12.89;90.83;100771.59;5057510;28;20686;-83
2022/09/19 07:51:59;;;;;;;4.00;1.80;;;;;;;12.99;89.66;100776.19;5051039;28;20222;-83
2022/09/19 07:54:25;;;;;;;5.27;1.43;;;;;;;13.11;89.37;100772.63;5051949;28;20362;-82
2022/09/19 07:56:52;;;;;;;5.77;1.27;;;;;;;13.24;88.42;100772.63;5049124;28;20566;-83
2022/09/19 07:59:18;;;;;;;3.17;1.90;;;;;;;13.38;88.00;100771.63;5047422;28;20208;-83
2022/09/19 08:01:45;;;;;;;6.70;2.00;;;;;;;13.50;87.75;100776.06;5078835;28;20224;-83
2022/09/19 08:04:11;;;;;;;7.13;1.90;;;;;;;13.62;86.67;100775.16;5066854;28;20213;-83
2022/09/19 08:06:39;;;;;;;6.97;1.70;;;;;;;13.73;86.01;100785.09;5074337;28;20231;-82
2022/09/19 08:09:06;;;;;;;6.57;2.07;;;;;;;13.82;85.19;100777.22;5064291;28;20201;-82
2022/09/19 08:11:35;;;;;;;5.83;1.43;;;;;;;13.96;84.84;100784.22;5066945;28;20809;-83
2022/09/19 08:14:01;;;;;;;7.90;1.70;;;;;;;14.07;83.98;100783.41;5068681;28;20714;-83
2022/09/19 08:16:28;;;;;;;6.70;1.97;;;;;;;14.17;83.67;100785.25;5069811;28;20216;-83
2022/09/19 08:18:54;;;;;;;6.10;1.43;;;;;;;14.26;82.83;100791.75;5063935;28;20207;-83
2022/09/19 08:21:21;;;;;;;6.93;2.00;;;;;;;14.31;82.22;100792.25;5064922;28;20572;-82
2022/09/19 08:23:49;;;;;;;8.47;1.97;;;;;;;14.37;81.61;100789.09;5069940;28;20590;-83
2022/09/19 08:26:16;;;;;;;5.43;1.60;;;;;;;14.43;81.54;100791.34;5068612;28;20607;-85
2022/09/19 08:28:43;;;;;;;14.37;2.03;;;;;;;14.50;80.97;100787.22;5070341;28;20588;-84
2022/09/19 08:31:10;;;;;;;4.17;2.03;;;;;;;14.54;80.55;100799.41;5069687;28;20209;-85
2022/09/19 08:33:37;;;;;;;9.30;1.80;;;;;;;14.58;80.07;100798.19;5070207;28;20596;-84
2022/09/19 08:36:04;;;;;;;4.40;1.50;;;;;;;14.59;79.50;100797.22;5077298;28;20245;-84
2022/09/19 08:38:30;;;;;;;6.37;2.07;;;;;;;14.62;79.27;100795.28;5076274;28;20196;-84
2022/09/19 08:41:19;;;;;;;5.53;1.90;;;;;;;14.67;79.24;100801.16;5075710;28;20204;-84
2022/09/19 08:43:55;;;;;;;8.37;1.83;;;;;;;14.77;79.12;100797.63;5070008;28;20526;-83
2022/09/19 08:46:33;;;;;;;7.60;2.13;;;;;;;14.89;78.82;100801.16;5066625;28;20207;-83
2022/09/19 08:49:03;;;;;;;8.30;1.63;;;;;;;14.95;77.93;100800.66;5063156;28;20212;-84
2022/09/19 08:51:33;;;;;;;6.47;1.80;;;;;;;14.98;77.66;100803.13;5071956;28;20624;-83
2022/09/19 08:54:07;;;;;;;9.87;2.13;;;;;;;15.01;77.39;100808.25;5070067;28;20208;-83
2022/09/19 08:56:38;;;;;;;13.50;2.10;;;;;;;15.02;77.33;100815.31;5069475;28;20202;-83
2022/09/19 08:59:10;;;;;;;7.30;1.93;;;;;;;15.02;77.19;100814.47;5070586;28;20198;-84
2022/09/19 09:01:38;;;;;;;8.17;1.50;;;;;;;15.04;77.05;100823.25;5076873;28;20214;-84
2022/09/19 09:04:23;;;;;;;6.50;1.67;;;;;;;15.14;77.43;100825.06;5067776;28;20425;-84
2022/09/19 09:07:03;;;;;;;7.53;1.67;;;;;;;15.20;77.21;100818.38;5076701;28;20265;-83
2022/09/19 09:09:39;;;;;;;7.03;1.60;;;;;;;15.23;76.70;100820.78;5073661;28;20201;-84
2022/09/19 09:12:18;;;;;;;9.57;1.90;;;;;;;15.24;76.40;100825.16;5074699;28;20224;-83
2022/09/19 09:14:53;;;;;;;6.83;1.80;;;;;;;15.27;76.08;100825.78;5079850;28;20224;-83
2022/09/19 09:17:29;;;;;;;7.53;1.53;;;;;;;15.34;75.83;100830.66;5072140;28;20199;-83
2022/09/19 09:20:09;;;;;;;9.10;1.83;;;;;;;15.35;75.09;100821.63;5066674;28;20198;-84
2022/09/19 09:22:41;;;;;;;6.57;1.60;;;;;;;15.34;74.33;100825.31;5077568;28;20222;-84
2022/09/19 09:25:13;;;;;;;7.30;1.50;;;;;;;15.36;74.30;100826.03;5073824;28;20206;-84
2022/09/19 09:27:51;;;;;;;12.77;1.93;;;;;;;15.39;74.04;100828.47;5074040;28;20236;-84
2022/09/19 09:30:20;;;;;;;6.20;2.03;;;;;;;15.41;73.80;100824.66;5069895;28;20193;-84
2022/09/19 09:32:50;;;;;;;6.90;1.80;;;;;;;15.45;73.56;100830.66;5075730;28;20594;-84
2022/09/19 09:35:27;;;;;;;6.57;1.43;;;;;;;15.50;73.61;100823.09;5073517;28;20579;-84
2022/09/19 09:38:02;;;;;;;7.73;1.60;;;;;;;15.52;73.01;100823.81;5078311;28;20237;-83
2022/09/19 09:43:35;;;;;;;6.80;1.63;;;;;;;15.57;73.18;100827.03;5074339;28;20232;-84
2022/09/19 09:46:08;;;;;;;12.50;1.80;;;;;;;15.59;72.65;100825.03;5081952;28;20682;-84
2022/09/19 09:48:38;;;;;;;9.27;1.63;;;;;;;15.68;72.98;100821.63;5077346;28;20712;-84
2022/09/19 09:51:16;;;;;;;7.97;1.70;;;;;;;15.83;72.80;100828.41;5081431;28;20641;-83
2022/09/19 09:53:58;;;;;;;9.87;1.90;;;;;;;15.99;72.75;100819.94;5073189;28;20233;-84
2022/09/19 09:56:30;;;;;;;6.67;1.63;;;;;;;16.17;71.57;100817.53;5082160;28;20222;-84
2022/09/19 10:03:34;;;;;;;7.63;1.80;;;;;;;16.26;70.79;100823.00;5075660;28;20210;-83
2022/09/19 10:05:08;;;;;;;10.00;2.33;;;;;;;16.31;69.56;100819.91;5083830;28;20213;-84
2022/09/19 10:07:43;;;;;;;7.33;1.47;;;;;;;16.29;68.90;100819.22;5073905;28;20217;-84
2022/09/19 10:10:14;;;;;;;6.53;1.97;;;;;;;16.25;68.96;100812.38;5074224;28;20374;-84
2022/09/19 10:12:47;;;;;;;5.57;1.93;;;;;;;16.24;68.43;100808.84;5073288;28;20230;-83
2022/09/19 10:15:20;;;;;;;6.17;1.70;;;;;;;16.23;67.84;100814.34;5075111;28;20263;-83
2022/09/19 10:17:51;;;;;;;7.33;1.47;;;;;;;16.31;68.12;100811.84;5068978;28;20195;-84
2022/09/19 10:20:22;;;;;;;7.67;1.63;;;;;;;16.42;67.69;100809.13;5070972;28;20234;-83
2022/09/19 10:22:49;;;;;;;5.60;1.70;;;;;;;16.53;67.15;100806.34;5073293;28;20219;-85
2022/09/19 10:25:18;;;;;;;6.57;2.00;;;;;;;16.65;66.24;100802.66;5068253;28;20207;-84
2022/09/19 10:27:45;;;;;;;5.97;1.57;;;;;;;16.81;65.68;100806.72;5071688;28;20220;-84
2022/09/19 10:30:18;;;;;;;1.97;0.90;;;;;;;16.84;63.23;100807.25;5070243;28;20298;-84
2022/09/19 10:32:45;;;;;;;2.80;0.90;;;;;;;16.86;62.31;100804.44;5075373;28;20753;-85
2022/09/19 10:35:26;;;;;;;5.40;1.00;;;;;;;16.85;62.07;100792.84;5070627;28;20219;-84
2022/09/19 10:37:53;;;;;;;3.80;0.90;;;;;;;16.91;61.29;100794.16;5073423;28;20199;-85
2022/09/19 10:40:20;;;;;;;5.60;1.13;;;;;;;16.98;61.17;100798.00;5078730;28;20228;-82
2022/09/19 10:42:48;;;;;;;4.27;1.00;;;;;;;17.06;61.58;100790.09;5072540;28;20223;-83
2022/09/19 10:45:25;;;;;;;3.37;1.20;;;;;;;17.13;61.94;100788.59;5071447;28;20215;-85
2022/09/19 10:47:55;;;;;;;2.37;0.70;;;;;;;17.18;61.58;100786.34;5072753;28;20219;-84
2022/09/19 10:50:23;;;;;;;4.30;1.27;;;;;;;17.17;60.09;100786.47;5080854;28;20207;-83
2022/09/19 10:52:51;;;;;;;2.27;1.03;;;;;;;17.13;59.21;100780.50;5072925;28;20219;-84
2022/09/19 10:55:22;;;;;;;2.30;0.83;;;;;;;17.14;59.07;100775.97;5084144;28;20230;-84
2022/09/19 10:57:59;;;;;;;3.93;0.90;;;;;;;17.15;58.26;100775.84;5075115;28;20218;-84
2022/09/19 11:00:30;;;;;;;2.27;0.70;;;;;;;17.14;57.71;100768.75;5072029;28;20216;-84
2022/09/19 11:02:59;;;;;;;5.33;0.73;;;;;;;17.16;57.42;100771.31;5070210;28;20228;-84
2022/09/19 11:05:29;;;;;;;4.33;0.93;;;;;;;17.23;57.97;100765.22;5075460;28;20243;-84
2022/09/19 11:07:56;;;;;;;5.27;0.90;;;;;;;17.32;58.16;100767.13;5075838;28;20702;-84
2022/09/19 11:10:32;;;;;;;3.97;0.90;;;;;;;17.39;57.94;100770.09;5081109;28;20242;-84
2022/09/19 11:13:06;;;;;;;5.27;1.00;;;;;;;17.41;58.16;100768.13;5064281;28;20313;-84
2022/09/19 11:15:38;;;;;;;3.23;0.60;;;;;;;17.39;58.03;100772.78;5070447;28;20211;-84
2022/09/19 11:18:15;;;;;;;2.53;0.70;;;;;;;17.35;57.37;100769.53;5076776;28;20221;-84
2022/09/19 11:20:50;;;;;;;4.00;0.87;;;;;;;17.32;56.75;100767.13;5080037;28;20203;-84
2022/09/19 11:23:41;;;;;;;4.37;0.97;;;;;;;17.32;56.52;100763.56;5072772;28;20223;-84
2022/09/19 11:26:23;;;;;;;2.73;0.80;;;;;;;17.32;56.29;100769.81;5062328;28;20204;-84
2022/09/19 11:28:59;;;;;;;2.87;0.80;;;;;;;17.37;56.32;100774.78;5073196;28;20222;-84
2022/09/19 11:31:41;;;;;;;4.83;1.00;;;;;;;17.41;56.43;100780.72;5075433;28;20221;-82
2022/09/19 11:34:16;;;;;;;5.60;1.00;;;;;;;17.44;56.29;100775.06;5077806;28;20720;-83
2022/09/19 11:36:59;;;;;;;4.53;1.10;;;;;;;17.47;56.49;100778.34;5073184;28;20219;-83
2022/09/19 11:39:40;;;;;;;3.50;0.60;;;;;;;17.53;56.09;100783.19;5067382;28;20206;-84
2022/09/19 11:42:23;;;;;;;2.53;0.50;;;;;;;17.51;54.76;100785.16;5066172;28;20233;-84
2022/09/19 11:45:06;;;;;;;2.93;0.70;;;;;;;17.50;54.17;100778.06;5080950;28;20654;-84
2022/09/19 11:47:52;;;;;;;2.43;0.93;;;;;;;17.48;53.48;100779.19;5065572;28;20203;-83
2022/09/19 11:50:41;;;;;;;3.57;0.80;;;;;;;17.46;53.31;100768.56;5073491;28;20210;-84
2022/09/19 11:53:42;;;;;;;3.30;0.80;;;;;;;17.52;54.17;100762.63;5079583;28;20262;-84
2022/09/19 11:56:35;;;;;;;4.37;1.33;;;;;;;17.56;55.29;100769.41;5074461;28;20204;-85
2022/09/19 11:59:10;;;;;;;7.77;1.30;;;;;;;17.58;55.94;100767.44;5067268;28;20208;-84
2022/09/19 12:01:44;;;;;;;2.07;0.70;;;;;;;17.58;56.33;100772.81;5062222;28;20209;-84
2022/09/19 12:04:26;;;;;;;2.93;0.80;;;;;;;17.58;57.65;100770.13;5055090;28;20224;-85
2022/09/19 12:07:10;;;;;;;4.13;1.10;;;;;;;17.64;58.97;100766.06;5066857;28;20202;-84